Newport, ME

7:00 PM EST on March 02, 2015 (GMT -0500)
Downtown Newport | Change Station
CLOSE
Current Station
Personal Weather Station
Location: Newport, ME
Elevation: 227 ft
Nearby Weather Stations

Elev 227 ft 44.84 °N, 69.28 °W | Updated 40 seconds ago

Partly Cloudy
Partly Cloudy
19.4 °F
Feels Like 11 °F
N
6.0
Wind Variable Wind from WNW
Gusts 9.0 mph

Today
High -- | Low -- °F
--% Chance of Precip.
Yesterday
High -- | Low -- °F
Precip. -- in
6:13 AM 5:25 PM
Waxing Gibbous, 93% visible
Pressure 29.94 in
Visibility 10.0 miles
Clouds Few 5500 ft
Scattered Clouds 7000 ft
Windchill 11 °F
Dew Point 21 °F
Humidity 100%
Rainfall 0.07 in
Snow Depth Not available.
UV 0 out of 12
Pollen .30 out of 12
Air Quality Not available.
Flu Activity Not available.
METAR KBGR 022353Z 30010G18KT 10SM FEW055 SCT070 M04/M13 A2992 RMK AO2 SLP137 4/050 60000 T10391133 11011 21044 53040

More Conditions Fewer Conditions

Pressure 29.94 in
Visibility 10.0 miles
Clouds Few 5500 ft
Scattered Clouds 7000 ft
Windchill 11 °F
Dew Point 21 °F
Humidity 100%
Rainfall 0.07 in
Snow Depth Not available.
UV 0 out of 12
Pollen .30 out of 12
Air Quality Not available.
Flu Activity Not available.
METAR KBGR 022353Z 30010G18KT 10SM FEW055 SCT070 M04/M13 A2992 RMK AO2 SLP137 4/050 60000 T10391133 11011 21044 53040

More Conditions Fewer Conditions

10-Day Weather Forecast

Almanac

Astronomy

Mar. 02, 2015 Rise Set
Actual Time
Civil Twilight
Nautical Twilight
Astronomical Twilight
Moon
Length of Visible Light
Length of Day
Tomorrow will be .
, % of the Moon is Illuminated

Today's Extremes

State Highs State Lows

Community

WunderPhotos

Upload Photos

1,801,999 photos uploaded!

WunderBlogs® & News

Nearby

Air Quality

  Air Quality AQ Index Pollutant
Not available.

Snow Depth

Station Depth Elevation

Earthquake Activity

City Distance Mag. Time & Date
Minimum magnitude displayed is 2.5.

Coastal Water Temperatures

Place Temperature

Nearby Weather Stations